Grande Europa — ICGE — position and weather

sailwx.info

Track history (hours):
 
Tides and Currents Weather Stations Pressure Air Temp Water Temp Dewpoint Dewpoint Depression Visibility Wind Speed Wind Dir Waves Ship Positions

Grande Europa

Last reported at 2016-May-29 14:31 UTC. Time now 2016-May-29 15:28 UTC.
Position N 33°46' E 033°20'.

Length 183 m; draft 8.3 m.

Type: Cargo ship. MMSI: 247206000.

Date/timePositionNaut miles runAvg speedWind from/ knotsBaromVisibWave heightAir tempDewpointWater temp
2016-May-29 14:31N 33°46' E 033°20'2519.1
2016-May-29 13:12N 34°10' E 033°13'1218.7
2016-May-29 12:33N 34°22' E 033°09'1817.9
2016-May-29 11:34N 34°39' E 033°03'2 1.8
2016-May-29 10:32N 34°39' E 033°01'0 0.0
2016-May-29 09:32N 34°39' E 033°01'0 0.0
2016-May-29 08:32N 34°39' E 033°01'0 0.0
2016-May-29 07:32N 34°39' E 033°01'0 0.0
2016-May-29 06:32N 34°39' E 033°01'0 0.0
2016-May-29 05:32N 34°39' E 033°01'0 0.0
2016-May-29 04:32N 34°39' E 033°01'0 0.5
2016-May-29 03:33N 34°39' E 033°02'8 7.5
2016-May-29 02:33N 34°32' E 033°06'1515.1
2016-May-29 01:33N 34°18' E 032°60'3114.9
2016-May-28 23:29N 33°52' E 032°41'  
2016-May-26 06:34N 37°23' E 025°53'67 1.9
2016-May-24 19:30N 38°06' E 024°48'1717.7
2016-May-24 18:33N 37°54' E 024°34'1817.7
2016-May-24 17:33N 37°42' E 024°17'1717.0
2016-May-24 16:33N 37°33' E 023°58'1515.6
2016-May-24 15:33N 37°41' E 023°42'1616.1
2016-May-24 14:34N 37°56' E 023°36'1 1.2
2016-May-24 13:31N 37°58' E 023°36'0 0.0
2016-May-24 12:31N 37°58' E 023°36'0 0.0
2016-May-24 11:31N 37°58' E 023°36'0 0.0
2016-May-24 10:31N 37°58' E 023°36'0 0.0
2016-May-24 09:31N 37°58' E 023°36'0 0.0
2016-May-24 08:31N 37°58' E 023°36'0 0.0
2016-May-24 07:31N 37°58' E 023°36'0 0.0
2016-May-24 06:31N 37°58' E 023°36'0 0.0
2016-May-24 05:31N 37°58' E 023°36'2 2.6
2016-May-24 04:34N 37°55' E 023°36'2 1.6
2016-May-24 03:33N 37°54' E 023°37'8 8.0
2016-May-24 02:33N 37°47' E 023°42'1413.6
2016-May-24 01:33N 37°33' E 023°44'1616.1
2016-May-24 00:33N 37°17' E 023°41'1615.7
2016-May-23 23:33N 37°02' E 023°38'1515.1
2016-May-23 22:33N 36°48' E 023°32'1515.4
2016-May-23 21:33N 36°34' E 023°23'30016.4
2016-May-23 03:13N 37°32' E 017°13'3118.1
2016-May-23 01:30N 37°41' E 016°36'2417.9
2016-May-23 00:08N 37°47' E 016°06'1417.5
2016-May-22 23:21N 37°51' E 015°50'1315.7
2016-May-22 22:34N 37°59' E 015°37'1716.8
2016-May-22 21:33N 38°15' E 015°39'1615.8
2016-May-22 20:34N 38°31' E 015°34'1918.1
2016-May-22 19:32N 38°48' E 015°25'1718.0
2016-May-22 18:33N 39°04' E 015°16'1818.0
2016-May-22 17:32N 39°21' E 015°06'1818.3
2016-May-22 16:33N 39°37' E 014°58'3718.4
2016-May-22 14:31N 40°12' E 014°40'1717.9
2016-May-22 13:33N 40°29' E 014°41'5 0.5
2016-May-22 03:30N 40°34' E 014°38'1313.7
2016-May-22 02:33N 40°29' E 014°22'1615.9
2016-May-22 01:33N 40°22' E 014°03'1616.0
2016-May-22 00:33N 40°16' E 013°43'1616.0
2016-May-21 23:33N 40°10' E 013°24'1616.0
2016-May-21 22:32N 40°03' E 013°05'1816.1
2016-May-21 21:26N 39°56' E 012°44'6216.0
2016-May-21 17:33N 39°32' E 011°29'1716.8
2016-May-21 16:33N 39°26' E 011°09'7016.9
2016-May-21 12:26N 39°00' E 009°45'1517.1
2016-May-21 11:33N 38°55' E 009°27'1717.0
2016-May-21 10:33N 38°50' E 009°06'1717.2
2016-May-21 09:33N 38°45' E 008°45'3817.4
2016-May-21 07:21N 38°36' E 007°58'35817.2
2016-May-20 10:33N 36°59' E 000°42'1817.7
2016-May-20 09:32N 36°55' E 000°21'1817.4
2016-May-20 08:30N 36°50' W 000°01'26617.8
2016-May-19 17:33N 35°57' W 005°25'  
Track history (hours):
 
Tides and Currents Weather Stations Pressure Air Temp Water Temp Dewpoint Dewpoint Depression Visibility Wind Speed Wind Dir Waves Ship Positions

Grande Europa

Last reported at 2016-May-29 14:31 UTC. Time now 2016-May-29 15:28 UTC.
Position N 33°46' E 033°20'.

Length 183 m; draft 8.3 m.

Type: Cargo ship. MMSI: 247206000.

Date/timePositionNaut miles runAvg speedWind from/ knotsBaromVisibWave heightAir tempDewpointWater temp
2016-May-29 14:31N 33°46' E 033°20'2519.1
2016-May-29 13:12N 34°10' E 033°13'1218.7
2016-May-29 12:33N 34°22' E 033°09'1817.9
2016-May-29 11:34N 34°39' E 033°03'2 1.8
2016-May-29 10:32N 34°39' E 033°01'0 0.0
2016-May-29 09:32N 34°39' E 033°01'0 0.0
2016-May-29 08:32N 34°39' E 033°01'0 0.0
2016-May-29 07:32N 34°39' E 033°01'0 0.0
2016-May-29 06:32N 34°39' E 033°01'0 0.0
2016-May-29 05:32N 34°39' E 033°01'0 0.0
2016-May-29 04:32N 34°39' E 033°01'0 0.5
2016-May-29 03:33N 34°39' E 033°02'8 7.5
2016-May-29 02:33N 34°32' E 033°06'1515.1
2016-May-29 01:33N 34°18' E 032°60'3114.9
2016-May-28 23:29N 33°52' E 032°41'  
2016-May-26 06:34N 37°23' E 025°53'67 1.9
2016-May-24 19:30N 38°06' E 024°48'1717.7
2016-May-24 18:33N 37°54' E 024°34'1817.7
2016-May-24 17:33N 37°42' E 024°17'1717.0
2016-May-24 16:33N 37°33' E 023°58'1515.6
2016-May-24 15:33N 37°41' E 023°42'1616.1
2016-May-24 14:34N 37°56' E 023°36'1 1.2
2016-May-24 13:31N 37°58' E 023°36'0 0.0
2016-May-24 12:31N 37°58' E 023°36'0 0.0
2016-May-24 11:31N 37°58' E 023°36'0 0.0
2016-May-24 10:31N 37°58' E 023°36'0 0.0
2016-May-24 09:31N 37°58' E 023°36'0 0.0
2016-May-24 08:31N 37°58' E 023°36'0 0.0
2016-May-24 07:31N 37°58' E 023°36'0 0.0
2016-May-24 06:31N 37°58' E 023°36'0 0.0
2016-May-24 05:31N 37°58' E 023°36'2 2.6
2016-May-24 04:34N 37°55' E 023°36'2 1.6
2016-May-24 03:33N 37°54' E 023°37'8 8.0
2016-May-24 02:33N 37°47' E 023°42'1413.6
2016-May-24 01:33N 37°33' E 023°44'1616.1
2016-May-24 00:33N 37°17' E 023°41'1615.7
2016-May-23 23:33N 37°02' E 023°38'1515.1
2016-May-23 22:33N 36°48' E 023°32'1515.4
2016-May-23 21:33N 36°34' E 023°23'30016.4
2016-May-23 03:13N 37°32' E 017°13'3118.1
2016-May-23 01:30N 37°41' E 016°36'2417.9
2016-May-23 00:08N 37°47' E 016°06'1417.5
2016-May-22 23:21N 37°51' E 015°50'1315.7
2016-May-22 22:34N 37°59' E 015°37'1716.8
2016-May-22 21:33N 38°15' E 015°39'1615.8
2016-May-22 20:34N 38°31' E 015°34'1918.1
2016-May-22 19:32N 38°48' E 015°25'1718.0
2016-May-22 18:33N 39°04' E 015°16'1818.0
2016-May-22 17:32N 39°21' E 015°06'1818.3
2016-May-22 16:33N 39°37' E 014°58'3718.4
2016-May-22 14:31N 40°12' E 014°40'1717.9
2016-May-22 13:33N 40°29' E 014°41'5 0.5
2016-May-22 03:30N 40°34' E 014°38'1313.7
2016-May-22 02:33N 40°29' E 014°22'1615.9
2016-May-22 01:33N 40°22' E 014°03'1616.0
2016-May-22 00:33N 40°16' E 013°43'1616.0
2016-May-21 23:33N 40°10' E 013°24'1616.0
2016-May-21 22:32N 40°03' E 013°05'1816.1
2016-May-21 21:26N 39°56' E 012°44'6216.0
2016-May-21 17:33N 39°32' E 011°29'1716.8
2016-May-21 16:33N 39°26' E 011°09'7016.9
2016-May-21 12:26N 39°00' E 009°45'1517.1
2016-May-21 11:33N 38°55' E 009°27'1717.0
2016-May-21 10:33N 38°50' E 009°06'1717.2
2016-May-21 09:33N 38°45' E 008°45'3817.4
2016-May-21 07:21N 38°36' E 007°58'35817.2
2016-May-20 10:33N 36°59' E 000°42'1817.7
2016-May-20 09:32N 36°55' E 000°21'1817.4
2016-May-20 08:30N 36°50' W 000°01'26617.8
2016-May-19 17:33N 35°57' W 005°25'  

Dump ship's entire track history